KHEQ

Holyoke Airport

Holyoke, Colorado, USA

KHEQ 110850Z AUTO 28012G16KT 10SM CLR 06/M14 A3025 RMK AO2

Observed Flight Rules
Dec-11 @ 08:50 UTC (37 minutes ago) Visual Flight Rules
Wind Visibility Clouds
280° at 12 knots
 Gusting to 16 knots
10 miles
  • Clear skies
Temperatures Readings
Current 6°C / 43°F
Dewpoint -14°C / 7°F
Humidity 22%
Altimeter 30.25" Hg
Pressure 1024 hPa
Elevation 1137
Observed Flight Rules
Dec-11 @ 08:50 UTC
(37 minutes ago)
VFR
Wind Visibility
280° at 12 knots
 Gusting to 16 knots
10 miles
Clouds
  • Clear skies
Temperature Dewpoint
6°C / 43°F -14°C / 7°F
Humidity Altimeter Pressure
22% 30.25" Hg 1024 hPa